sensor_id;sensor_type;location;lat;lon;timestamp;P1;durP1;ratioP1;P2;durP2;ratioP2
13793;SDS011;31160;49.500;7.772;2023-04-01T00:01:15;3.97;;;1.10;;
13793;SDS011;31160;49.500;7.772;2023-04-01T00:03:43;3.50;;;0.80;;
13793;SDS011;31160;49.500;7.772;2023-04-01T00:06:14;3.93;;;0.80;;
13793;SDS011;31160;49.500;7.772;2023-04-01T00:08:42;5.80;;;1.20;;
13793;SDS011;31160;49.500;7.772;2023-04-01T00:11:10;2.77;;;0.90;;
13793;SDS011;31160;49.500;7.772;2023-04-01T00:13:37;2.57;;;0.93;;
13793;SDS011;31160;49.500;7.772;2023-04-01T00:16:04;2.33;;;0.63;;
13793;SDS011;31160;49.500;7.772;2023-04-01T00:18:46;2.17;;;0.87;;
13793;SDS011;31160;49.500;7.772;2023-04-01T00:21:14;3.67;;;0.80;;
13793;SDS011;31160;49.500;7.772;2023-04-01T00:23:41;3.13;;;1.00;;
13793;SDS011;31160;49.500;7.772;2023-04-01T00:26:08;2.47;;;0.90;;
13793;SDS011;31160;49.500;7.772;2023-04-01T00:28:36;2.60;;;0.73;;
13793;SDS011;31160;49.500;7.772;2023-04-01T00:31:07;2.93;;;1.10;;
13793;SDS011;31160;49.500;7.772;2023-04-01T00:33:35;3.00;;;0.80;;
13793;SDS011;31160;49.500;7.772;2023-04-01T00:36:13;6.13;;;0.97;;
13793;SDS011;31160;49.500;7.772;2023-04-01T00:38:42;6.23;;;1.20;;
13793;SDS011;31160;49.500;7.772;2023-04-01T00:41:09;5.07;;;1.23;;
13793;SDS011;31160;49.500;7.772;2023-04-01T00:43:44;3.83;;;0.67;;
13793;SDS011;31160;49.500;7.772;2023-04-01T00:46:13;4.53;;;1.07;;
13793;SDS011;31160;49.500;7.772;2023-04-01T00:48:42;2.13;;;0.83;;
13793;SDS011;31160;49.500;7.772;2023-04-01T00:51:17;2.40;;;0.80;;
13793;SDS011;31160;49.500;7.772;2023-04-01T00:53:48;4.10;;;0.93;;
13793;SDS011;31160;49.500;7.772;2023-04-01T00:56:18;4.40;;;1.10;;
13793;SDS011;31160;49.500;7.772;2023-04-01T00:58:50;9.00;;;1.30;;
13793;SDS011;31160;49.500;7.772;2023-04-01T01:01:22;7.97;;;1.50;;
13793;SDS011;31160;49.500;7.772;2023-04-01T01:03:51;5.37;;;1.20;;
13793;SDS011;31160;49.500;7.772;2023-04-01T01:06:28;2.43;;;0.87;;
13793;SDS011;31160;49.500;7.772;2023-04-01T01:17:44;6.70;;;1.17;;
13793;SDS011;31160;49.500;7.772;2023-04-01T01:34:19;4.77;;;1.00;;
13793;SDS011;31160;49.500;7.772;2023-04-01T01:37:01;6.03;;;0.93;;
13793;SDS011;31160;49.500;7.772;2023-04-01T01:39:35;3.60;;;1.00;;
13793;SDS011;31160;49.500;7.772;2023-04-01T01:42:04;3.63;;;1.07;;
13793;SDS011;31160;49.500;7.772;2023-04-01T01:44:34;4.57;;;0.80;;
13793;SDS011;31160;49.500;7.772;2023-04-01T01:47:03;5.27;;;1.13;;
13793;SDS011;31160;49.500;7.772;2023-04-01T01:49:31;4.00;;;0.93;;
13793;SDS011;31160;49.500;7.772;2023-04-01T01:52:00;5.07;;;0.97;;
13793;SDS011;31160;49.500;7.772;2023-04-01T01:54:27;7.67;;;1.10;;
13793;SDS011;31160;49.500;7.772;2023-04-01T01:57:12;3.60;;;0.70;;
13793;SDS011;31160;49.500;7.772;2023-04-01T01:59:44;5.37;;;1.10;;
13793;SDS011;31160;49.500;7.772;2023-04-01T02:02:21;3.70;;;0.90;;
13793;SDS011;31160;49.500;7.772;2023-04-01T02:04:49;4.33;;;1.10;;
13793;SDS011;31160;49.500;7.772;2023-04-01T02:07:25;3.63;;;0.80;;
13793;SDS011;31160;49.500;7.772;2023-04-01T02:09:56;4.53;;;1.00;;
13793;SDS011;31160;49.500;7.772;2023-04-01T02:12:24;2.63;;;0.60;;
13793;SDS011;31160;49.500;7.772;2023-04-01T02:17:33;3.33;;;0.77;;
13793;SDS011;31160;49.500;7.772;2023-04-01T02:20:07;2.57;;;0.53;;
13793;SDS011;31160;49.500;7.772;2023-04-01T02:22:51;5.30;;;1.23;;
13793;SDS011;31160;49.500;7.772;2023-04-01T02:25:22;2.80;;;0.90;;
13793;SDS011;31160;49.500;7.772;2023-04-01T02:27:52;3.70;;;1.53;;
13793;SDS011;31160;49.500;7.772;2023-04-01T02:30:19;5.47;;;1.03;;
13793;SDS011;31160;49.500;7.772;2023-04-01T02:32:47;6.33;;;1.07;;
13793;SDS011;31160;49.500;7.772;2023-04-01T02:35:15;6.23;;;1.53;;
13793;SDS011;31160;49.500;7.772;2023-04-01T02:37:44;4.10;;;1.03;;
13793;SDS011;31160;49.500;7.772;2023-04-01T02:40:15;5.13;;;1.00;;
13793;SDS011;31160;49.500;7.772;2023-04-01T02:42:43;4.50;;;1.07;;
13793;SDS011;31160;49.500;7.772;2023-04-01T02:45:11;3.27;;;1.00;;
13793;SDS011;31160;49.500;7.772;2023-04-01T02:47:38;6.87;;;1.00;;
13793;SDS011;31160;49.500;7.772;2023-04-01T02:50:06;4.20;;;1.13;;
13793;SDS011;31160;49.500;7.772;2023-04-01T02:52:33;5.87;;;1.07;;
13793;SDS011;31160;49.500;7.772;2023-04-01T02:55:00;3.57;;;1.17;;
13793;SDS011;31160;49.500;7.772;2023-04-01T02:57:29;5.27;;;1.03;;
13793;SDS011;31160;49.500;7.772;2023-04-01T02:59:56;4.63;;;0.93;;
13793;SDS011;31160;49.500;7.772;2023-04-01T03:02:22;7.83;;;1.73;;
13793;SDS011;31160;49.500;7.772;2023-04-01T03:04:49;2.47;;;0.50;;
13793;SDS011;31160;49.500;7.772;2023-04-01T03:07:16;2.77;;;0.67;;
13793;SDS011;31160;49.500;7.772;2023-04-01T03:09:43;5.10;;;1.10;;
13793;SDS011;31160;49.500;7.772;2023-04-01T03:12:09;6.27;;;1.03;;
13793;SDS011;31160;49.500;7.772;2023-04-01T03:14:45;3.17;;;0.70;;
13793;SDS011;31160;49.500;7.772;2023-04-01T03:17:12;4.77;;;0.83;;
13793;SDS011;31160;49.500;7.772;2023-04-01T03:19:39;4.80;;;0.97;;
13793;SDS011;31160;49.500;7.772;2023-04-01T03:22:09;4.53;;;1.30;;
13793;SDS011;31160;49.500;7.772;2023-04-01T03:24:37;5.70;;;1.37;;
13793;SDS011;31160;49.500;7.772;2023-04-01T03:27:04;3.97;;;1.20;;
13793;SDS011;31160;49.500;7.772;2023-04-01T03:29:30;6.50;;;1.03;;
13793;SDS011;31160;49.500;7.772;2023-04-01T03:31:57;5.77;;;1.07;;
13793;SDS011;31160;49.500;7.772;2023-04-01T03:34:25;3.60;;;0.80;;
13793;SDS011;31160;49.500;7.772;2023-04-01T03:36:52;4.43;;;0.97;;
13793;SDS011;31160;49.500;7.772;2023-04-01T03:39:19;4.97;;;0.77;;
13793;SDS011;31160;49.500;7.772;2023-04-01T03:41:46;5.17;;;1.00;;
13793;SDS011;31160;49.500;7.772;2023-04-01T03:44:13;3.70;;;1.10;;
13793;SDS011;31160;49.500;7.772;2023-04-01T03:46:40;3.83;;;1.00;;
13793;SDS011;31160;49.500;7.772;2023-04-01T03:49:07;4.53;;;1.20;;
13793;SDS011;31160;49.500;7.772;2023-04-01T03:51:38;4.70;;;0.90;;
13793;SDS011;31160;49.500;7.772;2023-04-01T03:54:07;6.23;;;1.00;;
13793;SDS011;31160;49.500;7.772;2023-04-01T03:56:34;3.90;;;0.90;;
13793;SDS011;31160;49.500;7.772;2023-04-01T03:59:03;2.63;;;0.73;;
13793;SDS011;31160;49.500;7.772;2023-04-01T04:01:31;5.97;;;0.97;;
13793;SDS011;31160;49.500;7.772;2023-04-01T04:03:58;8.90;;;1.13;;
13793;SDS011;31160;49.500;7.772;2023-04-01T04:06:25;4.43;;;1.40;;
13793;SDS011;31160;49.500;7.772;2023-04-01T04:08:53;5.17;;;1.43;;
13793;SDS011;31160;49.500;7.772;2023-04-01T04:11:20;2.10;;;0.63;;
13793;SDS011;31160;49.500;7.772;2023-04-01T04:13:50;5.23;;;1.33;;
13793;SDS011;31160;49.500;7.772;2023-04-01T04:16:19;4.27;;;1.00;;
13793;SDS011;31160;49.500;7.772;2023-04-01T04:18:52;5.57;;;1.27;;
13793;SDS011;31160;49.500;7.772;2023-04-01T04:21:19;3.80;;;1.17;;
13793;SDS011;31160;49.500;7.772;2023-04-01T04:23:45;4.13;;;0.73;;
13793;SDS011;31160;49.500;7.772;2023-04-01T04:26:15;5.10;;;1.73;;
13793;SDS011;31160;49.500;7.772;2023-04-01T04:28:46;6.47;;;0.80;;
13793;SDS011;31160;49.500;7.772;2023-04-01T04:31:18;4.10;;;1.20;;
13793;SDS011;31160;49.500;7.772;2023-04-01T04:33:47;6.23;;;0.80;;
13793;SDS011;31160;49.500;7.772;2023-04-01T04:36:15;3.20;;;1.10;;
13793;SDS011;31160;49.500;7.772;2023-04-01T04:38:42;2.57;;;0.80;;
13793;SDS011;31160;49.500;7.772;2023-04-01T04:41:10;3.53;;;1.40;;
13793;SDS011;31160;49.500;7.772;2023-04-01T04:43:40;4.93;;;1.10;;
13793;SDS011;31160;49.500;7.772;2023-04-01T04:46:09;6.37;;;1.07;;
13793;SDS011;31160;49.500;7.772;2023-04-01T04:48:37;2.93;;;0.80;;
13793;SDS011;31160;49.500;7.772;2023-04-01T04:51:04;4.83;;;0.93;;
13793;SDS011;31160;49.500;7.772;2023-04-01T04:53:31;2.17;;;0.80;;
13793;SDS011;31160;49.500;7.772;2023-04-01T04:55:58;4.30;;;0.80;;
13793;SDS011;31160;49.500;7.772;2023-04-01T04:58:38;4.97;;;1.43;;
13793;SDS011;31160;49.500;7.772;2023-04-01T05:01:12;2.30;;;0.60;;
13793;SDS011;31160;49.500;7.772;2023-04-01T05:03:42;3.60;;;0.93;;
13793;SDS011;31160;49.500;7.772;2023-04-01T05:06:09;3.23;;;0.50;;
13793;SDS011;31160;49.500;7.772;2023-04-01T05:08:38;4.23;;;0.80;;
13793;SDS011;31160;49.500;7.772;2023-04-01T05:11:07;3.43;;;0.60;;
13793;SDS011;31160;49.500;7.772;2023-04-01T05:13:41;2.93;;;0.70;;
13793;SDS011;31160;49.500;7.772;2023-04-01T05:16:13;6.73;;;0.80;;
13793;SDS011;31160;49.500;7.772;2023-04-01T05:18:42;4.03;;;1.00;;
13793;SDS011;31160;49.500;7.772;2023-04-01T05:21:09;2.70;;;0.60;;
13793;SDS011;31160;49.500;7.772;2023-04-01T05:23:38;1.90;;;0.77;;
13793;SDS011;31160;49.500;7.772;2023-04-01T05:26:14;3.00;;;0.90;;
13793;SDS011;31160;49.500;7.772;2023-04-01T05:28:41;4.37;;;0.87;;
13793;SDS011;31160;49.500;7.772;2023-04-01T05:31:08;4.47;;;0.93;;
13793;SDS011;31160;49.500;7.772;2023-04-01T05:33:41;4.37;;;1.20;;
13793;SDS011;31160;49.500;7.772;2023-04-01T05:36:12;5.10;;;0.83;;
13793;SDS011;31160;49.500;7.772;2023-04-01T05:38:41;3.07;;;0.90;;
13793;SDS011;31160;49.500;7.772;2023-04-01T05:41:11;4.47;;;0.97;;
13793;SDS011;31160;49.500;7.772;2023-04-01T05:43:42;2.40;;;0.80;;
13793;SDS011;31160;49.500;7.772;2023-04-01T05:46:44;3.97;;;0.70;;
13793;SDS011;31160;49.500;7.772;2023-04-01T05:49:30;4.47;;;0.80;;
13793;SDS011;31160;49.500;7.772;2023-04-01T05:51:57;3.60;;;0.53;;
13793;SDS011;31160;49.500;7.772;2023-04-01T05:54:24;4.53;;;0.80;;
13793;SDS011;31160;49.500;7.772;2023-04-01T05:56:51;2.77;;;0.60;;
13793;SDS011;31160;49.500;7.772;2023-04-01T05:59:19;3.33;;;0.90;;
13793;SDS011;31160;49.500;7.772;2023-04-01T06:01:45;3.87;;;0.80;;
13793;SDS011;31160;49.500;7.772;2023-04-01T06:04:13;2.47;;;0.47;;
13793;SDS011;31160;49.500;7.772;2023-04-01T06:06:42;4.47;;;0.60;;
13793;SDS011;31160;49.500;7.772;2023-04-01T06:09:15;3.10;;;0.80;;
13793;SDS011;31160;49.500;7.772;2023-04-01T06:15:24;3.67;;;1.00;;
13793;SDS011;31160;49.500;7.772;2023-04-01T06:20:50;4.17;;;0.70;;
13793;SDS011;31160;49.500;7.772;2023-04-01T06:23:46;5.30;;;0.60;;
13793;SDS011;31160;49.500;7.772;2023-04-01T06:32:23;7.83;;;4.80;;
13793;SDS011;31160;49.500;7.772;2023-04-01T06:38:09;3.27;;;0.93;;
13793;SDS011;31160;49.500;7.772;2023-04-01T06:53:15;5.80;;;1.17;;
13793;SDS011;31160;49.500;7.772;2023-04-01T06:56:02;3.63;;;1.13;;
13793;SDS011;31160;49.500;7.772;2023-04-01T07:01:23;3.27;;;0.70;;
13793;SDS011;31160;49.500;7.772;2023-04-01T07:04:19;1.23;;;0.60;;
13793;SDS011;31160;49.500;7.772;2023-04-01T07:06:56;4.00;;;0.70;;
13793;SDS011;31160;49.500;7.772;2023-04-01T07:09:55;3.00;;;0.90;;
13793;SDS011;31160;49.500;7.772;2023-04-01T07:12:33;2.20;;;0.30;;
13793;SDS011;31160;49.500;7.772;2023-04-01T07:15:28;1.43;;;0.60;;
13793;SDS011;31160;49.500;7.772;2023-04-01T07:18:37;4.23;;;0.80;;
13793;SDS011;31160;49.500;7.772;2023-04-01T07:21:03;2.33;;;0.47;;
13793;SDS011;31160;49.500;7.772;2023-04-01T07:23:38;2.30;;;0.60;;
13793;SDS011;31160;49.500;7.772;2023-04-01T07:26:28;2.60;;;0.70;;
13793;SDS011;31160;49.500;7.772;2023-04-01T07:29:13;1.50;;;0.40;;
13793;SDS011;31160;49.500;7.772;2023-04-01T07:32:02;2.73;;;0.50;;
13793;SDS011;31160;49.500;7.772;2023-04-01T07:37:46;2.20;;;0.50;;
13793;SDS011;31160;49.500;7.772;2023-04-01T07:49:04;0.93;;;0.40;;
13793;SDS011;31160;49.500;7.772;2023-04-01T07:54:37;1.33;;;0.60;;
13793;SDS011;31160;49.500;7.772;2023-04-01T07:57:19;2.83;;;0.60;;
13793;SDS011;31160;49.500;7.772;2023-04-01T08:02:44;0.97;;;0.47;;
13793;SDS011;31160;49.500;7.772;2023-04-01T08:05:27;1.97;;;0.60;;
13793;SDS011;31160;49.500;7.772;2023-04-01T08:11:04;1.03;;;0.40;;
13793;SDS011;31160;49.500;7.772;2023-04-01T08:14:18;0.67;;;0.30;;
13793;SDS011;31160;49.500;7.772;2023-04-01T08:22:42;0.93;;;0.30;;
13793;SDS011;31160;49.500;7.772;2023-04-01T08:25:30;2.20;;;0.97;;
13793;SDS011;31160;49.500;7.772;2023-04-01T08:30:48;2.80;;;0.70;;
13793;SDS011;31160;49.500;7.772;2023-04-01T08:33:24;1.43;;;0.50;;
13793;SDS011;31160;49.500;7.772;2023-04-01T08:36:05;1.23;;;0.50;;
13793;SDS011;31160;49.500;7.772;2023-04-01T08:38:43;0.87;;;0.40;;
13793;SDS011;31160;49.500;7.772;2023-04-01T08:47:27;2.00;;;0.90;;
13793;SDS011;31160;49.500;7.772;2023-04-01T08:50:20;0.90;;;0.60;;
13793;SDS011;31160;49.500;7.772;2023-04-01T08:53:33;1.13;;;0.40;;
13793;SDS011;31160;49.500;7.772;2023-04-01T09:10:48;0.50;;;0.30;;
13793;SDS011;31160;49.500;7.772;2023-04-01T10:02:55;0.53;;;0.30;;
13793;SDS011;31160;49.500;7.772;2023-04-01T10:17:12;0.87;;;0.30;;
13793;SDS011;31160;49.500;7.772;2023-04-01T10:26:09;0.80;;;0.50;;
13793;SDS011;31160;49.500;7.772;2023-04-01T10:36:40;1.70;;;0.57;;
13793;SDS011;31160;49.500;7.772;2023-04-01T10:53:55;1.73;;;0.30;;
13793;SDS011;31160;49.500;7.772;2023-04-01T10:56:55;0.83;;;0.20;;
13793;SDS011;31160;49.500;7.772;2023-04-01T11:00:01;0.20;;;0.20;;
13793;SDS011;31160;49.500;7.772;2023-04-01T11:06:38;0.60;;;0.30;;
13793;SDS011;31160;49.500;7.772;2023-04-01T11:18:09;0.40;;;0.40;;
13793;SDS011;31160;49.500;7.772;2023-04-01T11:29:41;0.30;;;0.30;;
13793;SDS011;31160;49.500;7.772;2023-04-01T11:32:31;0.50;;;0.30;;
13793;SDS011;31160;49.500;7.772;2023-04-01T11:37:49;2.20;;;0.40;;
13793;SDS011;31160;49.500;7.772;2023-04-01T11:40:51;1.20;;;0.70;;
13793;SDS011;31160;49.500;7.772;2023-04-01T11:53:09;1.40;;;0.50;;
13793;SDS011;31160;49.500;7.772;2023-04-01T11:58:23;0.50;;;0.30;;
13793;SDS011;31160;49.500;7.772;2023-04-01T12:12:18;0.97;;;0.20;;
13793;SDS011;31160;49.500;7.772;2023-04-01T12:17:51;1.13;;;0.43;;
13793;SDS011;31160;49.500;7.772;2023-04-01T12:23:32;0.60;;;0.40;;
13793;SDS011;31160;49.500;7.772;2023-04-01T12:34:34;0.40;;;0.30;;
13793;SDS011;31160;49.500;7.772;2023-04-01T12:37:29;3.20;;;0.50;;
13793;SDS011;31160;49.500;7.772;2023-04-01T12:40:28;0.37;;;0.27;;
13793;SDS011;31160;49.500;7.772;2023-04-01T12:46:13;1.27;;;0.60;;
13793;SDS011;31160;49.500;7.772;2023-04-01T12:49:10;0.50;;;0.30;;
13793;SDS011;31160;49.500;7.772;2023-04-01T12:51:54;5.07;;;3.33;;
13793;SDS011;31160;49.500;7.772;2023-04-01T13:16:24;0.90;;;0.53;;
13793;SDS011;31160;49.500;7.772;2023-04-01T13:18:57;1.80;;;0.30;;
13793;SDS011;31160;49.500;7.772;2023-04-01T13:26:53;2.23;;;0.50;;
13793;SDS011;31160;49.500;7.772;2023-04-01T13:29:36;1.87;;;0.50;;
13793;SDS011;31160;49.500;7.772;2023-04-01T13:32:36;0.40;;;0.30;;
13793;SDS011;31160;49.500;7.772;2023-04-01T13:38:06;0.70;;;0.47;;
13793;SDS011;31160;49.500;7.772;2023-04-01T13:43:58;1.67;;;0.60;;
13793;SDS011;31160;49.500;7.772;2023-04-01T13:51:54;2.93;;;0.80;;
13793;SDS011;31160;49.500;7.772;2023-04-01T13:55:10;1.00;;;0.50;;
13793;SDS011;31160;49.500;7.772;2023-04-01T13:57:23;0.87;;;0.60;;
13793;SDS011;31160;49.500;7.772;2023-04-01T14:00:17;2.90;;;0.53;;
13793;SDS011;31160;49.500;7.772;2023-04-01T14:11:19;2.00;;;0.70;;
13793;SDS011;31160;49.500;7.772;2023-04-01T14:16:33;2.43;;;0.33;;
13793;SDS011;31160;49.500;7.772;2023-04-01T14:27:29;1.23;;;0.47;;
13793;SDS011;31160;49.500;7.772;2023-04-01T14:32:58;0.50;;;0.30;;
13793;SDS011;31160;49.500;7.772;2023-04-01T14:35:37;1.03;;;0.40;;
13793;SDS011;31160;49.500;7.772;2023-04-01T14:38:28;1.20;;;0.80;;
13793;SDS011;31160;49.500;7.772;2023-04-01T14:41:19;0.60;;;0.47;;
13793;SDS011;31160;49.500;7.772;2023-04-01T14:44:30;0.57;;;0.30;;
13793;SDS011;31160;49.500;7.772;2023-04-01T14:50:02;1.53;;;0.40;;
13793;SDS011;31160;49.500;7.772;2023-04-01T14:58:11;2.03;;;1.10;;
13793;SDS011;31160;49.500;7.772;2023-04-01T15:00:50;0.53;;;0.33;;
13793;SDS011;31160;49.500;7.772;2023-04-01T15:04:01;1.40;;;0.83;;
13793;SDS011;31160;49.500;7.772;2023-04-01T15:06:56;2.00;;;0.37;;
13793;SDS011;31160;49.500;7.772;2023-04-01T15:09:49;2.53;;;1.03;;
13793;SDS011;31160;49.500;7.772;2023-04-01T15:12:40;0.80;;;0.40;;
13793;SDS011;31160;49.500;7.772;2023-04-01T15:18:00;1.73;;;0.50;;
13793;SDS011;31160;49.500;7.772;2023-04-01T15:20:33;0.60;;;0.30;;
13793;SDS011;31160;49.500;7.772;2023-04-01T15:23:16;1.30;;;0.57;;
13793;SDS011;31160;49.500;7.772;2023-04-01T15:34:32;1.10;;;0.60;;
13793;SDS011;31160;49.500;7.772;2023-04-01T15:42:19;1.87;;;0.50;;
13793;SDS011;31160;49.500;7.772;2023-04-01T16:01:23;1.37;;;0.50;;
13793;SDS011;31160;49.500;7.772;2023-04-01T16:06:52;1.77;;;0.50;;
13793;SDS011;31160;49.500;7.772;2023-04-01T16:09:56;2.20;;;1.90;;
13793;SDS011;31160;49.500;7.772;2023-04-01T16:15:37;0.77;;;0.50;;
13793;SDS011;31160;49.500;7.772;2023-04-01T16:18:45;2.97;;;0.53;;
13793;SDS011;31160;49.500;7.772;2023-04-01T16:22:05;3.57;;;1.23;;
13793;SDS011;31160;49.500;7.772;2023-04-01T16:24:41;1.13;;;0.43;;
13793;SDS011;31160;49.500;7.772;2023-04-01T16:29:49;0.60;;;0.23;;
13793;SDS011;31160;49.500;7.772;2023-04-01T16:32:44;0.40;;;0.23;;
13793;SDS011;31160;49.500;7.772;2023-04-01T16:37:52;0.80;;;0.30;;
13793;SDS011;31160;49.500;7.772;2023-04-01T16:40:53;1.30;;;0.33;;
13793;SDS011;31160;49.500;7.772;2023-04-01T16:44:13;2.20;;;1.07;;
13793;SDS011;31160;49.500;7.772;2023-04-01T16:46:46;0.40;;;0.27;;
13793;SDS011;31160;49.500;7.772;2023-04-01T16:57:31;0.90;;;0.40;;
13793;SDS011;31160;49.500;7.772;2023-04-01T17:08:49;0.77;;;0.30;;
13793;SDS011;31160;49.500;7.772;2023-04-01T17:11:28;0.80;;;0.50;;
13793;SDS011;31160;49.500;7.772;2023-04-01T17:14:23;1.77;;;0.40;;
13793;SDS011;31160;49.500;7.772;2023-04-01T17:17:43;1.33;;;0.20;;
13793;SDS011;31160;49.500;7.772;2023-04-01T17:33:41;0.67;;;0.30;;
13793;SDS011;31160;49.500;7.772;2023-04-01T17:42:14;4.43;;;2.73;;
13793;SDS011;31160;49.500;7.772;2023-04-01T17:44:48;1.90;;;0.60;;
13793;SDS011;31160;49.500;7.772;2023-04-01T17:50:28;2.03;;;0.53;;
13793;SDS011;31160;49.500;7.772;2023-04-01T17:53:14;0.80;;;0.50;;
13793;SDS011;31160;49.500;7.772;2023-04-01T17:56:04;0.80;;;0.50;;
13793;SDS011;31160;49.500;7.772;2023-04-01T18:01:42;1.10;;;0.50;;
13793;SDS011;31160;49.500;7.772;2023-04-01T18:04:25;2.07;;;0.60;;
13793;SDS011;31160;49.500;7.772;2023-04-01T18:18:30;1.77;;;0.60;;
13793;SDS011;31160;49.500;7.772;2023-04-01T18:26:40;2.97;;;0.50;;
13793;SDS011;31160;49.500;7.772;2023-04-01T18:29:13;1.30;;;0.70;;
13793;SDS011;31160;49.500;7.772;2023-04-01T18:34:43;0.97;;;0.47;;
13793;SDS011;31160;49.500;7.772;2023-04-01T18:37:34;1.37;;;0.60;;
13793;SDS011;31160;49.500;7.772;2023-04-01T18:40:22;1.70;;;0.60;;
13793;SDS011;31160;49.500;7.772;2023-04-01T18:48:35;2.03;;;1.13;;
13793;SDS011;31160;49.500;7.772;2023-04-01T18:51:26;1.23;;;0.60;;
13793;SDS011;31160;49.500;7.772;2023-04-01T18:54:07;1.93;;;0.90;;
13793;SDS011;31160;49.500;7.772;2023-04-01T18:56:39;1.97;;;0.90;;
13793;SDS011;31160;49.500;7.772;2023-04-01T18:59:10;3.40;;;1.17;;
13793;SDS011;31160;49.500;7.772;2023-04-01T19:02:00;2.73;;;0.90;;
13793;SDS011;31160;49.500;7.772;2023-04-01T19:04:38;1.90;;;0.80;;
13793;SDS011;31160;49.500;7.772;2023-04-01T19:07:25;1.43;;;1.10;;
13793;SDS011;31160;49.500;7.772;2023-04-01T19:10:12;1.07;;;0.60;;
13793;SDS011;31160;49.500;7.772;2023-04-01T19:15:39;1.67;;;0.70;;
13793;SDS011;31160;49.500;7.772;2023-04-01T19:33:22;1.60;;;0.80;;
13793;SDS011;31160;49.500;7.772;2023-04-01T19:36:07;1.80;;;0.80;;
13793;SDS011;31160;49.500;7.772;2023-04-01T19:41:38;1.37;;;0.80;;
13793;SDS011;31160;49.500;7.772;2023-04-01T19:47:39;0.60;;;0.50;;
13793;SDS011;31160;49.500;7.772;2023-04-01T19:50:20;1.40;;;0.63;;
13793;SDS011;31160;49.500;7.772;2023-04-01T19:52:51;1.77;;;0.70;;
13793;SDS011;31160;49.500;7.772;2023-04-01T19:58:26;1.60;;;0.80;;
13793;SDS011;31160;49.500;7.772;2023-04-01T20:01:08;0.87;;;0.70;;
13793;SDS011;31160;49.500;7.772;2023-04-01T20:03:42;2.20;;;0.63;;
13793;SDS011;31160;49.500;7.772;2023-04-01T20:06:22;2.60;;;1.07;;
13793;SDS011;31160;49.500;7.772;2023-04-01T20:14:25;2.93;;;0.93;;
13793;SDS011;31160;49.500;7.772;2023-04-01T20:16:59;2.20;;;0.93;;
13793;SDS011;31160;49.500;7.772;2023-04-01T20:22:15;1.20;;;0.70;;
13793;SDS011;31160;49.500;7.772;2023-04-01T20:24:51;3.23;;;1.20;;
13793;SDS011;31160;49.500;7.772;2023-04-01T20:27:38;1.37;;;0.70;;
13793;SDS011;31160;49.500;7.772;2023-04-01T20:30:19;4.93;;;0.70;;
13793;SDS011;31160;49.500;7.772;2023-04-01T20:50:06;2.20;;;1.00;;
13793;SDS011;31160;49.500;7.772;2023-04-01T20:52:40;1.53;;;0.90;;
13793;SDS011;31160;49.500;7.772;2023-04-01T21:17:45;3.10;;;0.80;;
13793;SDS011;31160;49.500;7.772;2023-04-01T21:29:47;3.27;;;1.37;;
13793;SDS011;31160;49.500;7.772;2023-04-01T21:33:08;1.50;;;1.00;;
13793;SDS011;31160;49.500;7.772;2023-04-01T21:38:31;2.27;;;0.93;;
13793;SDS011;31160;49.500;7.772;2023-04-01T21:47:08;1.30;;;0.97;;
13793;SDS011;31160;49.500;7.772;2023-04-01T21:49:49;2.17;;;1.30;;
13793;SDS011;31160;49.500;7.772;2023-04-01T21:58:42;1.60;;;1.13;;
13793;SDS011;31160;49.500;7.772;2023-04-01T22:12:31;2.90;;;1.10;;
13793;SDS011;31160;49.500;7.772;2023-04-01T22:24:24;1.07;;;0.70;;
13793;SDS011;31160;49.500;7.772;2023-04-01T22:26:44;2.13;;;0.93;;
13793;SDS011;31160;49.500;7.772;2023-04-01T22:29:20;3.33;;;0.90;;
13793;SDS011;31160;49.500;7.772;2023-04-01T22:31:59;1.67;;;0.97;;
13793;SDS011;31160;49.500;7.772;2023-04-01T22:37:15;1.90;;;1.10;;
13793;SDS011;31160;49.500;7.772;2023-04-01T22:40:13;1.10;;;0.87;;
13793;SDS011;31160;49.500;7.772;2023-04-01T22:43:16;1.23;;;0.90;;
13793;SDS011;31160;49.500;7.772;2023-04-01T22:46:01;2.27;;;0.80;;
13793;SDS011;31160;49.500;7.772;2023-04-01T22:48:52;2.47;;;0.87;;
13793;SDS011;31160;49.500;7.772;2023-04-01T22:51:49;1.40;;;0.97;;
13793;SDS011;31160;49.500;7.772;2023-04-01T22:54:42;1.53;;;0.83;;
13793;SDS011;31160;49.500;7.772;2023-04-01T23:03:30;0.87;;;0.50;;
13793;SDS011;31160;49.500;7.772;2023-04-01T23:05:59;0.73;;;0.57;;
13793;SDS011;31160;49.500;7.772;2023-04-01T23:11:02;1.33;;;0.70;;
13793;SDS011;31160;49.500;7.772;2023-04-01T23:13:36;1.00;;;0.60;;
13793;SDS011;31160;49.500;7.772;2023-04-01T23:16:07;1.33;;;0.80;;
13793;SDS011;31160;49.500;7.772;2023-04-01T23:21:18;0.77;;;0.77;;
13793;SDS011;31160;49.500;7.772;2023-04-01T23:26:36;1.63;;;1.07;;
13793;SDS011;31160;49.500;7.772;2023-04-01T23:29:13;2.23;;;0.90;;
13793;SDS011;31160;49.500;7.772;2023-04-01T23:31:42;1.77;;;0.83;;
13793;SDS011;31160;49.500;7.772;2023-04-01T23:36:39;3.30;;;1.10;;
13793;SDS011;31160;49.500;7.772;2023-04-01T23:41:55;1.97;;;1.10;;
13793;SDS011;31160;49.500;7.772;2023-04-01T23:44:26;1.43;;;0.83;;
13793;SDS011;31160;49.500;7.772;2023-04-01T23:46:55;1.67;;;0.87;;
13793;SDS011;31160;49.500;7.772;2023-04-01T23:49:25;1.63;;;1.00;;
13793;SDS011;31160;49.500;7.772;2023-04-01T23:52:16;1.73;;;0.67;;
13793;SDS011;31160;49.500;7.772;2023-04-01T23:57:21;1.07;;;0.80;;
